createdAt,value
2023-05-01T00:03:42.130Z,81.22
2023-05-01T00:08:43.883Z,81.43
2023-05-01T00:13:45.652Z,80.98
2023-05-01T00:18:47.362Z,81.46
2023-05-01T00:23:49.183Z,81.23
2023-05-01T00:28:51.156Z,81.13
2023-05-01T00:33:56.245Z,81.06
2023-05-01T00:38:57.882Z,81.09
2023-05-01T00:43:59.687Z,81.20
2023-05-01T00:49:01.787Z,81.67
2023-05-01T00:54:03.672Z,81.71
2023-05-01T00:59:05.658Z,82.43
2023-05-01T01:04:08.165Z,81.92
2023-05-01T01:09:32.459Z,82.98
2023-05-01T01:14:43.139Z,83.33
2023-05-01T01:19:49.481Z,83.18
2023-05-01T01:25:11.102Z,83.28
2023-05-01T01:30:37.012Z,83.04
2023-05-01T01:35:43.160Z,83.20
2023-05-01T01:40:57.285Z,83.69
2023-05-01T01:46:02.263Z,83.58
2023-05-01T01:51:10.829Z,84.16
2023-05-01T01:56:12.685Z,84.21
2023-05-01T02:01:14.817Z,84.38
2023-05-01T02:06:17.752Z,84.95
2023-05-01T02:11:21.153Z,84.65
2023-05-01T02:16:25.551Z,84.96
2023-05-01T02:21:28.134Z,85.66
2023-05-01T02:26:32.048Z,85.80
2023-05-01T02:31:35.524Z,85.24
2023-05-01T02:36:37.387Z,85.31
2023-05-01T02:41:40.646Z,85.80
2023-05-01T02:46:45.621Z,85.76
2023-05-01T02:51:48.926Z,86.05
2023-05-01T02:56:51.063Z,85.84
2023-05-01T03:01:52.960Z,86.44
2023-05-01T03:06:56.947Z,86.37
2023-05-01T03:11:58.640Z,86.51
2023-05-01T03:17:00.483Z,86.95
2023-05-01T03:22:02.304Z,86.94
2023-05-01T03:27:05.343Z,87.26
2023-05-01T03:32:08.257Z,86.55
2023-05-01T03:37:10.722Z,86.74
2023-05-01T03:42:12.406Z,87.68
2023-05-01T03:47:16.472Z,87.46
2023-05-01T03:52:18.438Z,87.93
2023-05-01T03:57:23.550Z,88.09
2023-05-01T04:02:25.838Z,88.16
2023-05-01T04:07:27.548Z,87.17
2023-05-01T04:12:29.353Z,86.75
2023-05-01T04:17:31.826Z,86.42
2023-05-01T04:22:33.631Z,84.35
2023-05-01T04:27:35.366Z,84.53
2023-05-01T04:32:37.103Z,83.52
2023-05-01T04:37:38.769Z,82.59
2023-05-01T04:42:40.696Z,82.52
2023-05-01T04:47:45.787Z,81.72
2023-05-01T04:52:47.791Z,81.90
2023-05-01T04:57:49.548Z,81.94
2023-05-01T05:02:51.427Z,80.21
2023-05-01T05:07:53.170Z,78.33
2023-05-01T05:13:14.762Z,77.51
2023-05-01T05:18:16.535Z,77.14
2023-05-01T05:23:18.405Z,75.92
2023-05-01T05:28:20.039Z,74.79
2023-05-01T05:33:25.050Z,73.74
2023-05-01T05:38:26.760Z,70.72
2023-05-01T05:43:32.361Z,66.28
2023-05-01T05:48:34.540Z,64.51
2023-05-01T05:53:36.572Z,61.94
2023-05-01T05:58:38.303Z,61.03
2023-05-01T06:03:40.524Z,61.55
2023-05-01T06:08:42.396Z,58.87
2023-05-01T06:13:47.152Z,58.46
2023-05-01T06:18:49.843Z,58.53
2023-05-01T06:23:52.374Z,59.67
2023-05-01T06:29:16.654Z,59.30
2023-05-01T06:34:19.053Z,58.85
2023-05-01T06:39:27.721Z,59.46
2023-05-01T06:44:31.505Z,60.10
2023-05-01T06:49:36.127Z,57.47
2023-05-01T06:54:37.973Z,57.26
2023-05-01T06:59:40.298Z,55.07
2023-05-01T07:04:44.435Z,54.82
2023-05-01T07:09:46.109Z,51.82
2023-05-01T07:14:47.992Z,51.81
2023-05-01T07:19:50.228Z,49.43
2023-05-01T07:24:51.877Z,49.27
2023-05-01T07:29:53.569Z,49.16
2023-05-01T07:34:55.224Z,48.46
2023-05-01T07:39:58.422Z,49.63
2023-05-01T07:45:00.451Z,50.57
2023-05-01T07:50:03.397Z,49.50
2023-05-01T07:55:06.189Z,48.68
2023-05-01T08:00:08.413Z,49.55
2023-05-01T08:05:15.035Z,49.06
2023-05-01T08:10:16.891Z,46.36
2023-05-01T08:15:18.604Z,45.13
2023-05-01T08:20:20.378Z,44.93
2023-05-01T08:25:22.263Z,43.13
2023-05-01T08:30:25.864Z,42.84
2023-05-01T08:35:27.521Z,42.84
2023-05-01T08:40:32.320Z,43.28
2023-05-01T08:45:38.313Z,43.39
2023-05-01T08:50:41.119Z,43.06
2023-05-01T08:55:46.026Z,41.41
2023-05-01T09:00:47.795Z,40.89
2023-05-01T09:05:49.815Z,42.72
2023-05-01T09:10:51.820Z,43.11
2023-05-01T09:15:53.602Z,41.47
2023-05-01T09:20:55.800Z,42.47
2023-05-01T09:25:57.977Z,42.39
2023-05-01T09:30:59.663Z,41.97
2023-05-01T09:36:01.348Z,42.00
2023-05-01T09:41:06.607Z,43.07
2023-05-01T09:46:10.629Z,41.63
2023-05-01T09:51:22.663Z,44.06
2023-05-01T09:56:26.512Z,43.64
2023-05-01T10:01:38.625Z,41.94
2023-05-01T10:06:41.007Z,43.50
2023-05-01T10:11:53.599Z,43.86
2023-05-01T10:16:57.906Z,41.30
2023-05-01T10:21:59.778Z,40.89
2023-05-01T10:27:03.191Z,43.67
2023-05-01T10:32:07.454Z,42.78
2023-05-01T10:37:15.534Z,40.80
2023-05-01T10:42:17.978Z,41.01
2023-05-01T10:47:27.631Z,41.53
2023-05-01T10:52:29.408Z,41.47
2023-05-01T10:57:44.387Z,40.45
2023-05-01T11:02:46.188Z,39.40
2023-05-01T11:08:24.415Z,39.02
2023-05-01T11:13:58.227Z,38.85
2023-05-01T11:18:59.882Z,38.63
2023-05-01T11:24:01.886Z,38.88
2023-05-01T11:29:04.692Z,39.77
2023-05-01T11:34:09.649Z,40.41
2023-05-01T11:39:15.539Z,38.12
2023-05-01T11:44:18.585Z,38.09
2023-05-01T11:49:29.706Z,38.84
2023-05-01T11:54:31.380Z,38.27
2023-05-01T11:59:33.055Z,37.90
2023-05-01T12:04:35.135Z,38.94
2023-05-01T12:09:37.160Z,37.06
2023-05-01T12:14:39.635Z,36.97
2023-05-01T12:19:51.384Z,38.12
2023-05-01T12:24:52.989Z,36.40
2023-05-01T12:29:55.069Z,37.50
2023-05-01T12:34:57.060Z,38.78
2023-05-01T12:39:58.994Z,36.19
2023-05-01T12:45:04.088Z,37.47
2023-05-01T12:50:07.359Z,37.41
2023-05-01T12:55:09.529Z,36.92
2023-05-01T13:00:13.364Z,36.51
2023-05-01T13:05:15.184Z,35.70
2023-05-01T13:10:29.549Z,35.13
2023-05-01T13:15:31.269Z,34.64
2023-05-01T13:20:34.378Z,35.69
2023-05-01T13:25:36.051Z,37.35
2023-05-01T13:30:38.589Z,35.50
2023-05-01T13:35:40.518Z,33.93
2023-05-01T13:40:42.228Z,33.57
2023-05-01T13:45:43.925Z,33.91
2023-05-01T13:50:45.763Z,34.94
2023-05-01T13:55:47.575Z,33.53
2023-05-01T14:00:49.343Z,33.87
2023-05-01T14:05:51.100Z,33.92
2023-05-01T14:10:52.732Z,33.70
2023-05-01T14:15:54.416Z,33.37
2023-05-01T14:20:59.390Z,33.00
2023-05-01T14:26:01.048Z,33.80
2023-05-01T14:31:02.726Z,34.25
2023-05-01T14:36:04.440Z,34.67
2023-05-01T14:41:07.032Z,33.88
2023-05-01T14:46:12.698Z,35.14
2023-05-01T14:51:19.249Z,36.69
2023-05-01T14:56:21.341Z,37.68
2023-05-01T15:01:23.034Z,38.13
2023-05-01T15:06:25.078Z,38.71
2023-05-01T15:11:26.886Z,38.33
2023-05-01T15:16:28.578Z,38.92
2023-05-01T15:21:30.346Z,38.47
2023-05-01T15:26:31.967Z,39.23
2023-05-01T15:31:33.613Z,39.25
2023-05-01T15:36:35.262Z,39.20
2023-05-01T15:41:37.391Z,39.21
2023-05-01T15:46:39.294Z,39.54
2023-05-01T15:51:41.339Z,40.34
2023-05-01T15:56:43.006Z,40.12
2023-05-01T16:01:44.968Z,40.77
2023-05-01T16:06:46.819Z,39.92
2023-05-01T16:11:48.626Z,40.52
2023-05-01T16:16:51.021Z,41.54
2023-05-01T16:21:52.639Z,41.72
2023-05-01T16:26:54.303Z,42.29
2023-05-01T16:31:56.044Z,41.66
2023-05-01T16:36:58.224Z,42.71
2023-05-01T16:41:59.878Z,42.27
2023-05-01T16:47:03.502Z,42.62
2023-05-01T16:52:05.233Z,42.67
2023-05-01T16:57:07.488Z,42.94
2023-05-01T17:02:09.346Z,43.84
2023-05-01T17:07:11.192Z,43.81
2023-05-01T17:12:12.838Z,43.82
2023-05-01T17:17:15.131Z,44.43
2023-05-01T17:22:17.010Z,45.25
2023-05-01T17:27:18.633Z,44.96
2023-05-01T17:32:35.916Z,45.48
2023-05-01T17:37:43.814Z,45.14
2023-05-01T17:42:47.075Z,45.66
2023-05-01T17:47:48.751Z,46.01
2023-05-01T17:52:50.450Z,46.32
2023-05-01T17:57:56.210Z,46.48
2023-05-01T18:03:03.666Z,46.67
2023-05-01T18:08:05.596Z,46.82
2023-05-01T18:13:07.268Z,47.32
2023-05-01T18:18:09.139Z,47.24
2023-05-01T18:23:19.058Z,47.50
2023-05-01T18:28:20.796Z,47.82
2023-05-01T18:33:22.654Z,48.38
2023-05-01T18:39:23.975Z,48.52
2023-05-01T18:44:11.215Z,49.16
2023-05-01T18:49:25.504Z,49.26
2023-05-01T18:55:02.147Z,49.19
2023-05-01T19:00:56.562Z,49.72
2023-05-01T19:06:16.842Z,50.16
2023-05-01T19:11:18.677Z,50.44
2023-05-01T19:22:42.140Z,52.38
2023-05-01T19:33:10.329Z,54.23
2023-05-01T19:38:14.838Z,54.64
2023-05-01T19:43:18.548Z,54.45
2023-05-01T19:48:40.471Z,54.60
2023-05-01T19:53:42.142Z,55.01
2023-05-01T19:58:43.865Z,55.24
2023-05-01T20:03:45.636Z,55.37
2023-05-01T20:08:57.458Z,56.37
2023-05-01T20:13:59.677Z,56.98
2023-05-01T20:19:05.618Z,57.26
2023-05-01T20:24:20.546Z,57.36
2023-05-01T20:29:26.850Z,57.32
2023-05-01T20:34:28.530Z,57.98
2023-05-01T20:39:30.257Z,58.17
2023-05-01T20:50:12.498Z,65.49
2023-05-01T20:55:26.708Z,67.41
2023-05-01T21:00:31.235Z,67.70
2023-05-01T21:05:32.901Z,68.20
2023-05-01T21:10:35.150Z,70.94
2023-05-01T21:15:43.279Z,71.27
2023-05-01T21:20:46.891Z,71.37
2023-05-01T21:25:48.493Z,70.93
2023-05-01T21:30:50.519Z,70.53
2023-05-01T21:35:52.182Z,70.26
2023-05-01T21:40:53.841Z,69.55
2023-05-01T21:45:55.504Z,68.97
2023-05-01T21:50:57.253Z,68.65
2023-05-01T21:55:58.976Z,68.80
2023-05-01T22:01:00.837Z,68.72
2023-05-01T22:06:03.867Z,69.37
2023-05-01T22:11:09.046Z,69.23
2023-05-01T22:16:12.614Z,71.12
2023-05-01T22:21:14.350Z,72.37
2023-05-01T22:26:21.412Z,73.53
2023-05-01T22:31:23.511Z,73.43
2023-05-01T22:36:25.158Z,73.13
2023-05-01T22:41:26.855Z,73.25
2023-05-01T22:46:29.015Z,73.28
2023-05-01T22:51:31.036Z,73.60
2023-05-01T22:56:32.673Z,73.00
2023-05-01T23:01:34.317Z,72.63
2023-05-01T23:06:36.006Z,73.51
2023-05-01T23:11:40.426Z,73.64
2023-05-01T23:16:42.413Z,72.54
2023-05-01T23:21:44.139Z,71.62
2023-05-01T23:26:45.868Z,71.94
2023-05-01T23:31:47.899Z,72.13
2023-05-01T23:36:49.738Z,71.73
2023-05-01T23:41:51.452Z,71.97
2023-05-01T23:46:53.137Z,72.16
2023-05-01T23:51:54.812Z,73.35
2023-05-01T23:56:56.470Z,72.15
